createdAt,value
2022-11-28T00:01:35.702Z,100.00
2022-11-28T00:04:04.148Z,100.00
2022-11-28T00:06:33.924Z,100.00
2022-11-28T00:09:02.356Z,100.00
2022-11-28T00:11:30.418Z,100.00
2022-11-28T00:13:58.447Z,100.00
2022-11-28T00:16:26.718Z,100.00
2022-11-28T00:18:55.891Z,100.00
2022-11-28T00:21:24.985Z,100.00
2022-11-28T00:23:54.637Z,100.00
2022-11-28T00:26:25.728Z,100.00
2022-11-28T00:28:54.324Z,100.00
2022-11-28T00:31:24.662Z,100.00
2022-11-28T00:33:53.341Z,100.00
2022-11-28T00:36:22.412Z,100.00
2022-11-28T00:38:51.287Z,100.00
2022-11-28T00:41:22.843Z,100.00
2022-11-28T00:43:52.226Z,100.00
2022-11-28T00:46:22.970Z,100.00
2022-11-28T00:48:51.349Z,100.00
2022-11-28T00:51:21.996Z,100.00
2022-11-28T00:53:52.259Z,100.00
2022-11-28T00:56:24.236Z,100.00
2022-11-28T00:58:52.567Z,100.00
2022-11-28T01:01:24.095Z,100.00
2022-11-28T01:03:54.330Z,100.00
2022-11-28T01:06:24.128Z,100.00
2022-11-28T01:08:52.753Z,100.00
2022-11-28T01:11:23.075Z,100.00
2022-11-28T01:13:51.477Z,100.00
2022-11-28T01:16:19.538Z,100.00
2022-11-28T01:18:47.583Z,100.00
2022-11-28T01:21:15.824Z,100.00
2022-11-28T01:23:44.433Z,100.00
2022-11-28T01:26:16.392Z,100.00
2022-11-28T01:28:45.992Z,100.00
2022-11-28T01:31:17.129Z,100.00
2022-11-28T01:33:45.335Z,100.00
2022-11-28T01:36:15.123Z,100.00
2022-11-28T01:38:43.469Z,100.00
2022-11-28T01:41:12.635Z,100.00
2022-11-28T01:44:00.401Z,100.00
2022-11-28T01:46:29.402Z,100.00
2022-11-28T01:49:00.377Z,100.00
2022-11-28T01:51:29.125Z,100.00
2022-11-28T01:53:57.545Z,100.00
2022-11-28T01:56:28.708Z,100.00
2022-11-28T01:59:03.791Z,100.00
2022-11-28T02:01:32.180Z,100.00
2022-11-28T02:04:00.423Z,100.00
2022-11-28T02:06:29.489Z,100.00
2022-11-28T02:08:57.773Z,100.00
2022-11-28T02:11:55.040Z,100.00
2022-11-28T02:14:41.855Z,100.00
2022-11-28T02:17:18.250Z,100.00
2022-11-28T02:20:22.736Z,100.00
2022-11-28T02:22:59.495Z,100.00
2022-11-28T02:26:06.842Z,100.00
2022-11-28T02:29:02.438Z,100.00
2022-11-28T02:31:53.458Z,100.00
2022-11-28T02:34:29.910Z,100.00
2022-11-28T02:37:04.635Z,100.00
2022-11-28T02:39:41.836Z,100.00
2022-11-28T02:42:16.720Z,100.00
2022-11-28T02:44:48.893Z,100.00
2022-11-28T02:47:25.110Z,100.00
2022-11-28T02:50:00.133Z,100.00
2022-11-28T02:52:34.546Z,100.00
2022-11-28T02:55:03.624Z,100.00
2022-11-28T02:57:37.682Z,100.00
2022-11-28T03:00:26.107Z,100.00
2022-11-28T03:03:09.519Z,100.00
2022-11-28T03:05:44.831Z,100.00
2022-11-28T03:08:28.028Z,100.00
2022-11-28T03:11:01.998Z,100.00
2022-11-28T03:13:39.977Z,100.00
2022-11-28T03:16:19.091Z,100.00
2022-11-28T03:18:59.823Z,100.00
2022-11-28T03:21:37.847Z,100.00
2022-11-28T03:24:11.561Z,100.00
2022-11-28T03:26:48.717Z,100.00
2022-11-28T03:29:22.068Z,100.00
2022-11-28T03:31:54.280Z,100.00
2022-11-28T03:34:28.622Z,100.00
2022-11-28T03:37:02.925Z,100.00
2022-11-28T03:39:34.863Z,100.00
2022-11-28T03:42:08.954Z,100.00
2022-11-28T03:44:41.225Z,100.00
2022-11-28T03:47:10.564Z,100.00
2022-11-28T03:49:43.423Z,100.00
2022-11-28T03:52:16.176Z,100.00
2022-11-28T03:54:52.031Z,100.00
2022-11-28T03:57:26.093Z,100.00
2022-11-28T03:59:55.431Z,100.00
2022-11-28T04:02:31.222Z,100.00
2022-11-28T04:05:04.773Z,100.00
2022-11-28T04:07:39.880Z,100.00
2022-11-28T04:10:15.926Z,100.00
2022-11-28T04:12:54.452Z,100.00
2022-11-28T04:15:30.782Z,100.00
2022-11-28T04:18:05.161Z,100.00
2022-11-28T04:20:41.311Z,100.00
2022-11-28T04:23:14.428Z,100.00
2022-11-28T04:25:48.050Z,100.00
2022-11-28T04:28:22.390Z,100.00
2022-11-28T04:30:53.663Z,100.00
2022-11-28T04:33:24.532Z,100.00
2022-11-28T04:35:56.714Z,100.00
2022-11-28T04:38:28.144Z,100.00
2022-11-28T04:41:01.711Z,100.00
2022-11-28T04:43:35.150Z,100.00
2022-11-28T04:46:08.574Z,100.00
2022-11-28T04:48:36.838Z,100.00
2022-11-28T04:51:15.134Z,100.00
2022-11-28T04:53:49.602Z,100.00
2022-11-28T04:56:22.866Z,100.00
2022-11-28T04:58:52.410Z,100.00
2022-11-28T05:01:25.481Z,100.00
2022-11-28T05:03:54.200Z,100.00
2022-11-28T05:06:32.828Z,100.00
2022-11-28T05:09:01.374Z,100.00
2022-11-28T05:11:29.963Z,100.00
2022-11-28T05:13:58.015Z,100.00
2022-11-28T05:16:26.141Z,100.00
2022-11-28T05:18:54.236Z,100.00
2022-11-28T05:21:22.536Z,100.00
2022-11-28T05:23:51.972Z,100.00
2022-11-28T05:26:21.756Z,100.00
2022-11-28T05:28:52.090Z,100.00
2022-11-28T05:31:22.235Z,100.00
2022-11-28T05:33:50.396Z,100.00
2022-11-28T05:36:19.357Z,100.00
2022-11-28T05:38:47.568Z,100.00
2022-11-28T05:41:23.156Z,100.00
2022-11-28T05:43:51.476Z,100.00
2022-11-28T05:46:20.351Z,100.00
2022-11-28T05:48:48.483Z,100.00
2022-11-28T05:51:16.523Z,100.00
2022-11-28T05:53:44.886Z,100.00
2022-11-28T05:56:15.423Z,100.00
2022-11-28T05:58:45.246Z,100.00
2022-11-28T06:01:15.309Z,100.00
2022-11-28T06:03:43.731Z,100.00
2022-11-28T06:06:14.428Z,100.00
2022-11-28T06:08:42.680Z,100.00
2022-11-28T06:11:11.033Z,100.00
2022-11-28T06:13:39.486Z,100.00
2022-11-28T06:16:11.278Z,100.00
2022-11-28T06:18:40.073Z,100.00
2022-11-28T06:21:09.354Z,100.00
2022-11-28T06:23:38.283Z,100.00
2022-11-28T06:26:07.554Z,100.00
2022-11-28T06:28:36.511Z,100.00
2022-11-28T06:31:05.013Z,100.00
2022-11-28T06:33:34.449Z,100.00
2022-11-28T06:36:03.442Z,100.00
2022-11-28T06:38:32.179Z,100.00
2022-11-28T06:41:03.314Z,100.00
2022-11-28T06:43:31.956Z,100.00
2022-11-28T06:46:00.220Z,100.00
2022-11-28T06:48:28.904Z,100.00
2022-11-28T06:51:03.417Z,100.00
2022-11-28T06:53:31.843Z,100.00
2022-11-28T06:55:59.980Z,100.00
2022-11-28T06:58:28.109Z,100.00
2022-11-28T07:00:56.756Z,100.00
2022-11-28T07:03:24.893Z,100.00
2022-11-28T07:05:52.977Z,100.00
2022-11-28T07:08:22.503Z,100.00
2022-11-28T07:10:50.626Z,100.00
2022-11-28T07:13:18.619Z,100.00
2022-11-28T07:15:50.026Z,100.00
2022-11-28T07:18:18.325Z,100.00
2022-11-28T07:20:46.328Z,100.00
2022-11-28T07:23:14.393Z,100.00
2022-11-28T07:25:43.843Z,100.00
2022-11-28T07:28:11.905Z,100.00
2022-11-28T07:30:39.965Z,100.00
2022-11-28T07:33:07.994Z,100.00
2022-11-28T07:35:36.016Z,100.00
2022-11-28T07:38:04.352Z,100.00
2022-11-28T07:40:32.386Z,100.00
2022-11-28T07:43:01.800Z,100.00
2022-11-28T07:45:47.512Z,100.00
2022-11-28T07:48:17.936Z,100.00
2022-11-28T07:50:45.975Z,100.00
2022-11-28T07:53:14.121Z,100.00
2022-11-28T07:55:42.240Z,100.00
2022-11-28T07:58:11.670Z,100.00
2022-11-28T08:00:39.700Z,100.00
2022-11-28T08:03:07.773Z,100.00
2022-11-28T08:05:35.831Z,100.00
2022-11-28T08:08:03.982Z,100.00
2022-11-28T08:10:32.031Z,100.00
2022-11-28T08:13:00.006Z,100.00
2022-11-28T08:15:31.789Z,100.00
2022-11-28T08:17:59.930Z,100.00
2022-11-28T08:20:28.043Z,100.00
2022-11-28T08:22:56.151Z,100.00
2022-11-28T08:25:24.204Z,100.00
2022-11-28T08:27:52.252Z,100.00
2022-11-28T08:30:20.474Z,100.00
2022-11-28T08:32:50.019Z,100.00
2022-11-28T08:35:18.156Z,100.00
2022-11-28T08:37:46.313Z,100.00
2022-11-28T08:40:15.353Z,100.00
2022-11-28T08:42:43.557Z,100.00
2022-11-28T08:45:12.984Z,100.00
2022-11-28T08:47:41.122Z,100.00
2022-11-28T08:50:11.241Z,100.00
2022-11-28T08:52:39.266Z,100.00
2022-11-28T08:55:07.914Z,100.00
2022-11-28T08:57:35.896Z,100.00
2022-11-28T09:00:06.389Z,100.00
2022-11-28T09:02:34.350Z,100.00
2022-11-28T09:05:02.378Z,100.00
2022-11-28T09:07:32.000Z,100.00
2022-11-28T09:10:00.094Z,100.00
2022-11-28T09:12:28.203Z,100.00
2022-11-28T09:14:56.260Z,100.00
2022-11-28T09:17:24.242Z,100.00
2022-11-28T09:19:52.270Z,100.00
2022-11-28T09:22:20.368Z,100.00
2022-11-28T09:24:49.833Z,100.00
2022-11-28T09:27:17.869Z,100.00
2022-11-28T09:29:45.893Z,100.00
2022-11-28T09:32:13.991Z,100.00
2022-11-28T09:34:42.170Z,100.00
2022-11-28T09:37:10.918Z,100.00
2022-11-28T09:39:50.644Z,100.00
2022-11-28T09:42:33.250Z,100.00
2022-11-28T09:45:04.536Z,100.00
2022-11-28T09:47:36.923Z,100.00
2022-11-28T09:50:10.863Z,100.00
2022-11-28T09:52:46.606Z,100.00
2022-11-28T09:55:19.941Z,100.00
2022-11-28T09:57:52.120Z,100.00
2022-11-28T10:00:22.892Z,100.00
2022-11-28T10:03:08.333Z,100.00
2022-11-28T10:05:42.264Z,100.00
2022-11-28T10:08:27.901Z,100.00
2022-11-28T10:11:03.543Z,100.00
2022-11-28T10:14:06.724Z,100.00
2022-11-28T10:16:41.904Z,100.00
2022-11-28T10:19:25.781Z,100.00
2022-11-28T10:22:06.394Z,100.00
2022-11-28T10:24:38.642Z,100.00
2022-11-28T10:27:07.429Z,100.00
2022-11-28T10:29:45.243Z,100.00
2022-11-28T10:32:17.708Z,100.00
2022-11-28T10:34:51.217Z,100.00
2022-11-28T10:37:25.336Z,100.00
2022-11-28T10:39:53.887Z,100.00
2022-11-28T10:42:29.116Z,100.00
2022-11-28T10:45:15.378Z,100.00
2022-11-28T10:48:07.386Z,100.00
2022-11-28T10:50:48.296Z,100.00
2022-11-28T10:53:25.229Z,100.00
2022-11-28T10:56:09.921Z,100.00
2022-11-28T10:58:47.100Z,100.00
2022-11-28T11:01:17.077Z,100.00
2022-11-28T11:03:45.282Z,100.00
2022-11-28T11:06:13.303Z,100.00
2022-11-28T11:08:42.380Z,100.00
2022-11-28T11:11:23.767Z,100.00
2022-11-28T11:14:00.861Z,100.00
2022-11-28T11:16:49.237Z,100.00
2022-11-28T11:19:28.378Z,100.00
2022-11-28T11:22:05.944Z,100.00
2022-11-28T11:24:34.096Z,100.00
2022-11-28T11:27:08.386Z,100.00
2022-11-28T11:29:38.711Z,100.00
2022-11-28T11:32:21.861Z,100.00
2022-11-28T11:34:50.380Z,100.00
2022-11-28T11:37:22.017Z,100.00
2022-11-28T11:39:51.999Z,100.00
2022-11-28T11:42:24.170Z,100.00
2022-11-28T11:44:52.413Z,100.00
2022-11-28T11:47:40.760Z,100.00
2022-11-28T11:50:18.555Z,100.00
2022-11-28T11:53:01.936Z,100.00
2022-11-28T11:55:32.054Z,100.00
2022-11-28T11:58:05.936Z,100.00
2022-11-28T12:00:39.074Z,100.00
2022-11-28T12:03:21.035Z,100.00
2022-11-28T12:08:49.691Z,100.00
2022-11-28T12:11:19.611Z,97.55
2022-11-28T12:13:48.079Z,99.08
2022-11-28T12:16:38.013Z,96.59
2022-11-28T12:19:25.318Z,97.43
2022-11-28T12:22:07.909Z,95.30
2022-11-28T12:24:47.874Z,94.71
2022-11-28T12:27:28.542Z,92.58
2022-11-28T12:30:11.020Z,90.70
2022-11-28T12:32:48.414Z,87.77
2022-11-28T12:35:28.828Z,80.94
2022-11-28T12:38:13.524Z,79.83
2022-11-28T12:40:53.481Z,72.86
2022-11-28T12:43:37.789Z,62.50
2022-11-28T12:46:16.409Z,56.20
2022-11-28T12:48:58.635Z,51.31
2022-11-28T12:51:38.284Z,47.09
2022-11-28T12:54:25.966Z,44.35
2022-11-28T12:57:00.096Z,43.14
2022-11-28T12:59:36.290Z,40.61
2022-11-28T13:02:25.356Z,39.41
2022-11-28T13:05:26.174Z,38.80
2022-11-28T13:08:17.002Z,36.93
2022-11-28T13:10:52.476Z,36.56
2022-11-28T13:13:25.271Z,36.71
2022-11-28T13:16:04.688Z,35.31
2022-11-28T13:18:41.647Z,35.14
2022-11-28T13:21:28.423Z,35.49
2022-11-28T13:24:07.075Z,35.16
2022-11-28T13:26:44.594Z,34.67
2022-11-28T13:29:27.230Z,34.87
2022-11-28T13:32:02.644Z,34.68
2022-11-28T13:34:31.410Z,34.93
2022-11-28T13:40:01.292Z,33.70
2022-11-28T13:43:02.485Z,33.41
2022-11-28T13:45:31.964Z,33.49
2022-11-28T13:48:01.043Z,35.50
2022-11-28T13:50:59.747Z,35.85
2022-11-28T13:53:28.023Z,36.96
2022-11-28T13:56:24.828Z,36.83
2022-11-28T13:58:57.029Z,38.71
2022-11-28T14:01:27.334Z,39.78
2022-11-28T14:04:08.811Z,40.71
2022-11-28T14:06:45.603Z,42.35
2022-11-28T14:09:30.862Z,43.86
2022-11-28T14:12:04.667Z,45.49
2022-11-28T14:14:53.775Z,47.57
2022-11-28T14:17:39.024Z,49.58
2022-11-28T14:20:20.573Z,51.76
2022-11-28T14:23:03.202Z,54.28
2022-11-28T14:25:33.919Z,55.94
2022-11-28T14:28:07.073Z,59.02
2022-11-28T14:30:38.339Z,61.59
2022-11-28T14:33:16.141Z,64.78
2022-11-28T14:36:06.816Z,68.73
2022-11-28T14:38:46.004Z,71.61
2022-11-28T14:41:15.423Z,73.14
2022-11-28T14:43:46.596Z,75.97
2022-11-28T14:46:25.282Z,78.08
2022-11-28T14:49:18.207Z,80.58
2022-11-28T14:55:22.346Z,85.34
2022-11-28T14:57:58.195Z,85.45
2022-11-28T15:00:29.777Z,88.13
2022-11-28T15:03:20.801Z,92.56
2022-11-28T15:05:52.027Z,92.60
2022-11-28T15:08:55.241Z,96.35
2022-11-28T15:11:48.148Z,96.51
2022-11-28T15:14:22.278Z,98.07
2022-11-28T15:16:56.269Z,98.59
2022-11-28T15:19:28.417Z,99.15
2022-11-28T15:21:57.103Z,100.00
2022-11-28T15:24:28.001Z,100.00
2022-11-28T15:26:58.340Z,100.00
2022-11-28T15:29:28.620Z,100.00
2022-11-28T15:31:59.784Z,100.00
2022-11-28T15:34:31.258Z,100.00
2022-11-28T15:37:01.544Z,100.00
2022-11-28T15:39:35.940Z,100.00
2022-11-28T15:42:06.346Z,100.00
2022-11-28T15:44:34.987Z,100.00
2022-11-28T15:47:05.095Z,100.00
2022-11-28T15:49:35.944Z,100.00
2022-11-28T15:52:06.188Z,100.00
2022-11-28T15:54:41.293Z,100.00
2022-11-28T15:57:20.408Z,100.00
2022-11-28T15:59:48.577Z,100.00
2022-11-28T16:02:23.691Z,100.00
2022-11-28T16:04:56.242Z,100.00
2022-11-28T16:07:24.362Z,100.00
2022-11-28T16:09:58.133Z,100.00
2022-11-28T16:12:27.574Z,100.00
2022-11-28T16:15:01.480Z,100.00
2022-11-28T16:17:33.466Z,100.00
2022-11-28T16:20:03.781Z,100.00
2022-11-28T16:22:37.148Z,100.00
2022-11-28T16:25:22.215Z,100.00
2022-11-28T16:27:53.302Z,100.00
2022-11-28T16:30:36.996Z,100.00
2022-11-28T16:33:38.575Z,100.00
2022-11-28T16:36:11.707Z,100.00
2022-11-28T16:38:40.309Z,100.00
2022-11-28T16:41:16.912Z,100.00
2022-11-28T16:43:50.455Z,100.00
2022-11-28T16:46:22.911Z,100.00
2022-11-28T16:49:00.216Z,100.00
2022-11-28T16:51:32.754Z,100.00
2022-11-28T16:54:01.584Z,100.00
2022-11-28T16:56:44.930Z,100.00
2022-11-28T16:59:15.063Z,100.00
2022-11-28T17:01:45.042Z,100.00
2022-11-28T17:04:22.644Z,100.00
2022-11-28T17:06:51.187Z,100.00
2022-11-28T17:09:19.548Z,100.00
2022-11-28T17:11:52.058Z,100.00
2022-11-28T17:14:20.202Z,100.00
2022-11-28T17:16:48.224Z,100.00
2022-11-28T17:19:16.290Z,100.00
2022-11-28T17:21:48.051Z,100.00
2022-11-28T17:24:19.470Z,100.00
2022-11-28T17:26:47.924Z,100.00
2022-11-28T17:29:16.958Z,100.00
2022-11-28T17:31:47.038Z,100.00
2022-11-28T17:34:17.912Z,100.00
2022-11-28T17:36:47.739Z,100.00
2022-11-28T17:39:17.002Z,100.00
2022-11-28T17:41:46.861Z,100.00
2022-11-28T17:44:18.725Z,100.00
2022-11-28T17:46:47.230Z,100.00
2022-11-28T17:49:15.562Z,100.00
2022-11-28T17:51:44.291Z,100.00
2022-11-28T17:54:19.245Z,100.00
2022-11-28T17:56:47.623Z,100.00
2022-11-28T17:59:17.280Z,100.00
2022-11-28T18:01:45.816Z,100.00
2022-11-28T18:04:14.143Z,100.00
2022-11-28T18:06:44.093Z,100.00
2022-11-28T18:09:14.508Z,100.00
2022-11-28T18:11:43.064Z,100.00
2022-11-28T18:14:11.344Z,100.00
2022-11-28T18:16:43.727Z,100.00
2022-11-28T18:19:12.164Z,100.00
2022-11-28T18:21:40.357Z,100.00
2022-11-28T18:24:09.039Z,100.00
2022-11-28T18:26:38.532Z,100.00
2022-11-28T18:29:07.201Z,100.00
2022-11-28T18:31:35.877Z,100.00
2022-11-28T18:34:06.141Z,100.00
2022-11-28T18:36:35.338Z,100.00
2022-11-28T18:39:06.989Z,100.00
2022-11-28T18:41:35.190Z,100.00
2022-11-28T18:44:06.260Z,100.00
2022-11-28T18:46:35.300Z,100.00
2022-11-28T18:49:03.578Z,100.00
2022-11-28T18:51:33.240Z,100.00
2022-11-28T18:54:04.290Z,100.00
2022-11-28T18:56:32.485Z,100.00
2022-11-28T18:59:00.725Z,100.00
2022-11-28T19:01:32.481Z,100.00
2022-11-28T19:04:01.923Z,100.00
2022-11-28T19:06:30.953Z,100.00
2022-11-28T19:09:01.854Z,100.00
2022-11-28T19:11:30.611Z,100.00
2022-11-28T19:13:59.228Z,100.00
2022-11-28T19:16:30.166Z,100.00
2022-11-28T19:18:59.055Z,100.00
2022-11-28T19:21:28.732Z,100.00
2022-11-28T19:23:58.058Z,100.00
2022-11-28T19:26:27.980Z,100.00
2022-11-28T19:28:56.741Z,100.00
2022-11-28T19:31:27.286Z,100.00
2022-11-28T19:34:01.284Z,100.00
2022-11-28T19:36:30.683Z,100.00
2022-11-28T19:38:59.176Z,100.00
2022-11-28T19:41:28.126Z,100.00
2022-11-28T19:43:56.256Z,100.00
2022-11-28T19:46:24.407Z,100.00
2022-11-28T19:48:52.749Z,100.00
2022-11-28T19:51:22.145Z,100.00
2022-11-28T19:53:50.250Z,100.00
2022-11-28T19:56:20.271Z,100.00
2022-11-28T19:58:48.671Z,100.00
2022-11-28T20:01:18.557Z,100.00
2022-11-28T20:03:48.765Z,100.00
2022-11-28T20:06:19.257Z,100.00
2022-11-28T20:08:49.772Z,100.00
2022-11-28T20:11:19.446Z,100.00
2022-11-28T20:13:48.615Z,100.00
2022-11-28T20:16:18.636Z,100.00
2022-11-28T20:18:47.075Z,100.00
2022-11-28T20:21:17.558Z,100.00
2022-11-28T20:23:47.156Z,100.00
2022-11-28T20:26:17.567Z,100.00
2022-11-28T20:28:45.725Z,100.00
2022-11-28T20:31:20.114Z,100.00
2022-11-28T20:33:48.231Z,100.00
2022-11-28T20:36:18.015Z,100.00
2022-11-28T20:38:46.241Z,100.00
2022-11-28T20:41:17.442Z,100.00
2022-11-28T20:43:45.980Z,100.00
2022-11-28T20:46:16.750Z,100.00
2022-11-28T20:48:45.376Z,100.00
2022-11-28T20:51:15.495Z,100.00
2022-11-28T20:53:43.833Z,100.00
2022-11-28T20:56:14.793Z,100.00
2022-11-28T20:58:44.867Z,100.00
2022-11-28T21:01:15.907Z,100.00
2022-11-28T21:03:44.342Z,100.00
2022-11-28T21:06:12.521Z,100.00
2022-11-28T21:08:41.050Z,100.00
2022-11-28T21:11:10.603Z,100.00
2022-11-28T21:13:39.199Z,100.00
2022-11-28T21:16:10.543Z,100.00
2022-11-28T21:18:40.074Z,100.00
2022-11-28T21:21:09.761Z,100.00
2022-11-28T21:23:38.229Z,100.00
2022-11-28T21:26:08.652Z,100.00
2022-11-28T21:28:37.594Z,100.00
2022-11-28T21:31:09.620Z,100.00
2022-11-28T21:33:37.782Z,100.00
2022-11-28T21:36:08.027Z,100.00
2022-11-28T21:38:36.837Z,100.00
2022-11-28T21:41:05.063Z,100.00
2022-11-28T21:43:33.056Z,100.00
2022-11-28T21:46:04.519Z,100.00
2022-11-28T21:48:37.092Z,100.00
2022-11-28T21:51:06.016Z,100.00
2022-11-28T21:53:34.593Z,100.00
2022-11-28T21:56:04.470Z,100.00
2022-11-28T21:58:32.974Z,100.00
2022-11-28T22:01:02.680Z,100.00
2022-11-28T22:03:32.537Z,100.00
2022-11-28T22:06:05.141Z,100.00
2022-11-28T22:08:33.647Z,100.00
2022-11-28T22:11:04.928Z,100.00
2022-11-28T22:13:33.398Z,100.00
2022-11-28T22:16:01.585Z,100.00
2022-11-28T22:18:30.290Z,100.00
2022-11-28T22:21:06.503Z,100.00
2022-11-28T22:23:39.030Z,100.00
2022-11-28T22:26:08.608Z,100.00
2022-11-28T22:28:38.206Z,100.00
2022-11-28T22:31:09.938Z,100.00
2022-11-28T22:33:38.319Z,100.00
2022-11-28T22:36:10.890Z,100.00
2022-11-28T22:38:39.702Z,100.00
2022-11-28T22:41:09.281Z,100.00
2022-11-28T22:43:37.751Z,100.00
2022-11-28T22:46:06.206Z,100.00
2022-11-28T22:48:35.247Z,100.00
2022-11-28T22:51:09.976Z,100.00
2022-11-28T22:53:38.004Z,100.00
2022-11-28T22:56:06.594Z,100.00
2022-11-28T22:58:40.980Z,100.00
2022-11-28T23:01:12.781Z,100.00
2022-11-28T23:03:41.026Z,100.00
2022-11-28T23:06:13.735Z,100.00
2022-11-28T23:08:44.106Z,100.00
2022-11-28T23:11:14.649Z,100.00
2022-11-28T23:13:43.345Z,100.00
2022-11-28T23:16:13.070Z,100.00
2022-11-28T23:18:41.291Z,100.00
2022-11-28T23:21:11.306Z,100.00
2022-11-28T23:23:39.813Z,100.00
2022-11-28T23:26:10.607Z,100.00
2022-11-28T23:28:39.388Z,100.00
2022-11-28T23:31:09.000Z,100.00
2022-11-28T23:33:37.763Z,100.00
2022-11-28T23:36:15.180Z,100.00
2022-11-28T23:38:44.009Z,100.00
2022-11-28T23:41:12.848Z,100.00
2022-11-28T23:43:41.307Z,100.00
2022-11-28T23:46:11.333Z,100.00
2022-11-28T23:48:39.505Z,100.00
2022-11-28T23:51:08.636Z,100.00
2022-11-28T23:53:38.174Z,100.00
2022-11-28T23:56:08.241Z,100.00
2022-11-28T23:58:36.525Z,100.00
